createdAt,value
2018-07-31T00:02:05.748Z,99.90
2018-07-31T00:04:34.079Z,99.90
2018-07-31T00:07:02.322Z,99.90
2018-07-31T00:09:30.548Z,99.90
2018-07-31T00:11:58.750Z,99.90
2018-07-31T00:14:27.510Z,99.90
2018-07-31T00:16:55.716Z,99.90
2018-07-31T00:19:23.957Z,99.90
2018-07-31T00:21:52.158Z,99.90
2018-07-31T00:24:20.336Z,99.90
2018-07-31T00:31:44.393Z,99.90
2018-07-31T00:34:12.590Z,99.90
2018-07-31T00:36:40.763Z,99.90
2018-07-31T00:39:10.317Z,99.90
2018-07-31T00:41:38.530Z,99.90
2018-07-31T00:44:06.716Z,99.90
2018-07-31T00:46:34.926Z,99.90
2018-07-31T00:49:03.160Z,99.90
2018-07-31T00:51:31.348Z,99.90
2018-07-31T00:53:59.552Z,99.90
2018-07-31T00:56:27.715Z,99.90
2018-07-31T00:58:55.888Z,99.90
2018-07-31T01:01:24.101Z,99.90
2018-07-31T01:03:52.332Z,99.90
2018-07-31T01:06:24.722Z,99.90
2018-07-31T01:08:52.896Z,99.90
2018-07-31T01:11:21.093Z,99.90
2018-07-31T01:13:49.306Z,99.90
2018-07-31T01:16:17.488Z,99.90
2018-07-31T01:18:45.682Z,99.90
2018-07-31T01:21:13.916Z,99.90
2018-07-31T01:23:42.095Z,99.90
2018-07-31T01:26:10.264Z,99.90
2018-07-31T01:28:38.438Z,99.90
2018-07-31T01:31:06.648Z,99.90
2018-07-31T01:33:34.893Z,99.90
2018-07-31T01:36:03.097Z,99.90
2018-07-31T01:38:31.377Z,99.90
2018-07-31T01:40:59.557Z,99.90
2018-07-31T01:43:27.728Z,99.90
2018-07-31T01:45:55.964Z,99.90
2018-07-31T01:48:24.139Z,99.90
2018-07-31T01:50:52.321Z,99.90
2018-07-31T01:53:20.507Z,99.90
2018-07-31T01:55:48.705Z,99.90
2018-07-31T01:58:16.898Z,99.90
2018-07-31T02:00:45.061Z,99.90
2018-07-31T02:03:13.305Z,99.90
2018-07-31T02:05:41.448Z,99.90
2018-07-31T02:08:09.636Z,99.90
2018-07-31T02:10:37.845Z,99.90
2018-07-31T02:13:06.961Z,99.90
2018-07-31T02:15:35.166Z,99.90
2018-07-31T02:18:03.408Z,99.90
2018-07-31T02:20:31.718Z,99.90
2018-07-31T02:22:59.909Z,99.90
2018-07-31T02:25:28.081Z,99.90
2018-07-31T02:27:56.274Z,99.90
2018-07-31T02:30:24.451Z,99.90
2018-07-31T02:32:53.024Z,99.90
2018-07-31T02:35:21.232Z,99.90
2018-07-31T02:37:49.489Z,99.90
2018-07-31T02:40:17.681Z,99.90
2018-07-31T02:42:45.950Z,99.90
2018-07-31T02:45:14.777Z,99.90
2018-07-31T02:50:11.768Z,99.90
2018-07-31T02:52:40.646Z,99.90
2018-07-31T02:55:10.163Z,99.90
2018-07-31T02:57:38.894Z,99.90
2018-07-31T03:00:08.149Z,99.90
2018-07-31T03:02:36.345Z,99.90
2018-07-31T03:05:06.219Z,99.90
2018-07-31T03:07:34.396Z,99.90
2018-07-31T03:10:02.575Z,99.90
2018-07-31T03:12:30.741Z,99.90
2018-07-31T03:14:58.934Z,99.90
2018-07-31T03:17:27.121Z,99.90
2018-07-31T03:19:55.311Z,99.90
2018-07-31T03:22:23.477Z,99.90
2018-07-31T03:24:51.829Z,99.90
2018-07-31T03:27:20.032Z,99.90
2018-07-31T03:29:48.233Z,99.90
2018-07-31T03:32:16.438Z,99.90
2018-07-31T03:37:12.576Z,99.90
2018-07-31T03:42:08.766Z,99.90
2018-07-31T03:44:36.958Z,99.90
2018-07-31T03:47:05.134Z,99.90
2018-07-31T03:49:33.319Z,99.90
2018-07-31T03:52:01.533Z,99.90
2018-07-31T03:54:29.759Z,99.90
2018-07-31T03:56:57.999Z,99.90
2018-07-31T03:59:26.186Z,99.90
2018-07-31T04:01:54.382Z,99.90
2018-07-31T04:04:22.614Z,99.90
2018-07-31T04:06:50.813Z,99.90
2018-07-31T04:09:19.023Z,99.90
2018-07-31T04:11:47.225Z,99.90
2018-07-31T04:14:15.406Z,99.90
2018-07-31T04:16:43.608Z,99.90
2018-07-31T04:19:11.744Z,99.90
2018-07-31T04:21:39.919Z,99.90
2018-07-31T04:24:08.117Z,99.90
2018-07-31T04:26:36.292Z,99.90
2018-07-31T04:29:04.473Z,99.90
2018-07-31T04:31:32.649Z,99.90
2018-07-31T04:34:00.833Z,99.90
2018-07-31T04:36:29.012Z,99.90
2018-07-31T04:38:57.209Z,99.90
2018-07-31T04:41:25.430Z,99.90
2018-07-31T04:43:53.589Z,99.90
2018-07-31T04:46:21.738Z,99.90
2018-07-31T04:48:49.938Z,99.90
2018-07-31T04:51:18.160Z,99.90
2018-07-31T04:53:46.350Z,99.90
2018-07-31T04:56:14.561Z,99.90
2018-07-31T04:58:42.758Z,99.90
2018-07-31T05:01:10.989Z,99.90
2018-07-31T05:03:39.166Z,99.90
2018-07-31T05:08:35.324Z,99.90
2018-07-31T05:11:03.565Z,99.90
2018-07-31T05:13:31.717Z,99.90
2018-07-31T05:15:59.906Z,99.90
2018-07-31T05:18:28.129Z,99.90
2018-07-31T05:20:56.332Z,99.90
2018-07-31T05:23:24.521Z,99.90
2018-07-31T05:25:52.732Z,99.90
2018-07-31T05:28:20.927Z,99.90
2018-07-31T05:30:49.129Z,99.90
2018-07-31T05:33:17.319Z,99.90
2018-07-31T05:35:45.504Z,99.90
2018-07-31T05:38:13.716Z,99.90
2018-07-31T05:43:09.854Z,99.90
2018-07-31T05:48:06.119Z,99.90
2018-07-31T05:50:34.337Z,99.90
2018-07-31T05:53:02.554Z,99.90
2018-07-31T05:57:58.732Z,99.90
2018-07-31T06:00:26.929Z,99.90
2018-07-31T06:02:55.141Z,99.90
2018-07-31T06:05:23.330Z,99.90
2018-07-31T06:07:51.534Z,99.90
2018-07-31T06:10:19.734Z,99.90
2018-07-31T06:12:47.932Z,99.90
2018-07-31T06:15:16.222Z,99.90
2018-07-31T06:17:44.405Z,99.90
2018-07-31T06:20:14.449Z,99.90
2018-07-31T06:22:42.914Z,99.90
2018-07-31T06:25:11.634Z,99.10
2018-07-31T06:27:39.975Z,98.50
2018-07-31T06:30:10.232Z,98.00
2018-07-31T06:32:38.726Z,98.40
2018-07-31T06:35:07.110Z,97.80
2018-07-31T06:37:35.444Z,98.20
2018-07-31T06:40:10.413Z,97.90
2018-07-31T06:42:38.786Z,98.20
2018-07-31T06:45:07.221Z,97.40
2018-07-31T06:52:31.812Z,92.40
2018-07-31T06:55:00.267Z,92.00
2018-07-31T06:57:28.665Z,92.10
2018-07-31T06:59:56.925Z,92.20
2018-07-31T07:02:25.233Z,92.20
2018-07-31T07:04:53.586Z,93.40
2018-07-31T07:07:21.841Z,91.80
2018-07-31T07:09:50.619Z,89.30
2018-07-31T07:12:18.978Z,86.20
2018-07-31T07:14:47.249Z,83.00
2018-07-31T07:17:15.586Z,79.90
2018-07-31T07:19:43.905Z,79.40
2018-07-31T07:24:40.232Z,78.40
2018-07-31T07:27:08.570Z,76.60
2018-07-31T07:29:36.904Z,75.10
2018-07-31T07:32:05.332Z,72.90
2018-07-31T07:34:33.609Z,73.20
2018-07-31T07:37:01.904Z,73.50
2018-07-31T07:39:30.232Z,77.70
2018-07-31T07:41:58.534Z,75.90
2018-07-31T07:44:26.825Z,80.10
2018-07-31T07:46:55.155Z,82.20
2018-07-31T07:49:23.491Z,83.30
2018-07-31T07:51:51.779Z,84.50
2018-07-31T07:54:20.237Z,82.90
2018-07-31T07:59:16.603Z,78.20
2018-07-31T08:01:44.981Z,80.00
2018-07-31T08:04:13.375Z,82.60
2018-07-31T08:06:41.772Z,76.80
2018-07-31T08:11:38.639Z,66.70
2018-07-31T08:14:06.953Z,67.80
2018-07-31T08:16:35.213Z,65.00
2018-07-31T08:19:03.514Z,67.90
2018-07-31T08:21:31.958Z,65.60
2018-07-31T08:24:00.282Z,64.50
2018-07-31T08:26:28.566Z,62.40
2018-07-31T08:28:56.914Z,58.50
2018-07-31T08:31:25.296Z,57.40
2018-07-31T08:33:53.687Z,57.20
2018-07-31T08:36:22.009Z,54.90
2018-07-31T08:38:50.322Z,55.00
2018-07-31T08:41:18.774Z,54.50
2018-07-31T08:43:47.104Z,56.10
2018-07-31T08:46:15.544Z,55.90
2018-07-31T08:48:43.846Z,54.10
2018-07-31T08:51:12.220Z,53.30
2018-07-31T08:53:40.547Z,51.30
2018-07-31T08:56:08.854Z,50.80
2018-07-31T09:01:05.175Z,47.60
2018-07-31T09:03:33.518Z,47.90
2018-07-31T09:06:01.883Z,47.20
2018-07-31T09:08:30.462Z,46.60
2018-07-31T09:13:26.631Z,48.00
2018-07-31T09:15:54.981Z,46.40
2018-07-31T09:18:23.261Z,46.20
2018-07-31T09:20:51.538Z,46.20
2018-07-31T09:23:19.865Z,46.30
2018-07-31T09:25:48.388Z,45.50
2018-07-31T09:28:17.797Z,45.70
2018-07-31T09:30:51.469Z,44.30
2018-07-31T09:33:19.758Z,43.80
2018-07-31T09:35:48.036Z,44.20
2018-07-31T09:38:16.327Z,46.50
2018-07-31T09:40:44.598Z,47.20
2018-07-31T09:43:12.897Z,46.00
2018-07-31T09:45:41.140Z,45.90
2018-07-31T09:48:09.462Z,45.20
2018-07-31T09:50:37.825Z,44.30
2018-07-31T09:53:06.157Z,42.90
2018-07-31T09:58:02.591Z,44.80
2018-07-31T10:00:36.189Z,44.20
2018-07-31T10:03:04.503Z,43.70
2018-07-31T10:05:32.778Z,42.00
2018-07-31T10:08:01.091Z,41.10
2018-07-31T10:10:29.346Z,42.00
2018-07-31T10:12:57.740Z,40.80
2018-07-31T10:15:26.021Z,40.60
2018-07-31T10:17:54.415Z,41.20
2018-07-31T10:20:22.669Z,41.50
2018-07-31T10:22:51.361Z,40.80
2018-07-31T10:25:19.632Z,38.50
2018-07-31T10:27:48.539Z,39.90
2018-07-31T10:30:17.014Z,42.60
2018-07-31T10:32:45.330Z,45.40
2018-07-31T10:35:13.609Z,45.60
2018-07-31T10:40:10.091Z,42.00
2018-07-31T10:42:38.454Z,39.80
2018-07-31T10:45:06.875Z,38.70
2018-07-31T10:47:35.385Z,36.70
2018-07-31T10:50:03.723Z,36.90
2018-07-31T10:52:32.147Z,34.70
2018-07-31T10:55:00.519Z,35.20
2018-07-31T10:57:28.952Z,34.50
2018-07-31T10:59:57.419Z,33.20
2018-07-31T11:02:25.683Z,32.80
2018-07-31T11:04:54.058Z,33.90
2018-07-31T11:09:51.063Z,35.30
2018-07-31T11:12:19.494Z,35.20
2018-07-31T11:14:47.963Z,34.10
2018-07-31T11:17:16.314Z,32.50
2018-07-31T11:19:44.743Z,31.60
2018-07-31T11:22:13.053Z,31.80
2018-07-31T11:24:41.580Z,30.70
2018-07-31T11:27:09.978Z,30.70
2018-07-31T11:29:38.300Z,30.70
2018-07-31T11:32:06.846Z,30.50
2018-07-31T11:34:35.261Z,30.10
2018-07-31T11:37:03.683Z,30.70
2018-07-31T11:39:32.026Z,30.70
2018-07-31T11:42:00.290Z,30.50
2018-07-31T11:44:28.570Z,31.30
2018-07-31T11:46:56.877Z,30.00
2018-07-31T11:49:25.191Z,29.80
2018-07-31T11:51:53.492Z,29.80
2018-07-31T11:54:21.815Z,29.60
2018-07-31T11:56:50.194Z,29.90
2018-07-31T11:59:18.506Z,30.80
2018-07-31T12:01:46.908Z,31.60
2018-07-31T12:04:15.224Z,31.60
2018-07-31T12:06:43.506Z,32.50
2018-07-31T12:09:13.212Z,32.60
2018-07-31T12:11:42.888Z,33.50
2018-07-31T12:14:11.334Z,34.60
2018-07-31T12:16:39.788Z,36.80
2018-07-31T12:19:08.323Z,36.50
2018-07-31T12:21:36.585Z,36.20
2018-07-31T12:24:04.882Z,36.30
2018-07-31T12:26:33.222Z,36.90
2018-07-31T12:31:29.603Z,35.20
2018-07-31T12:33:58.027Z,35.60
2018-07-31T12:36:26.353Z,35.70
2018-07-31T12:38:54.658Z,35.00
2018-07-31T12:41:22.951Z,34.30
2018-07-31T12:43:51.278Z,35.40
2018-07-31T12:46:19.647Z,36.80
2018-07-31T12:51:16.193Z,36.70
2018-07-31T12:56:12.645Z,36.90
2018-07-31T13:01:08.990Z,37.80
2018-07-31T13:06:05.510Z,36.10
2018-07-31T13:08:33.888Z,37.40
2018-07-31T13:11:02.217Z,36.50
2018-07-31T13:13:30.511Z,36.50
2018-07-31T13:15:58.833Z,36.30
2018-07-31T13:18:27.146Z,38.00
2018-07-31T13:20:55.432Z,38.00
2018-07-31T13:23:23.748Z,37.30
2018-07-31T13:25:52.027Z,37.60
2018-07-31T13:28:20.334Z,38.20
2018-07-31T13:30:48.675Z,38.20
2018-07-31T13:38:12.818Z,37.70
2018-07-31T13:40:41.032Z,37.30
2018-07-31T13:43:09.238Z,36.10
2018-07-31T13:45:37.470Z,37.80
2018-07-31T13:48:05.737Z,38.60
2018-07-31T13:53:01.966Z,38.60
2018-07-31T13:55:30.192Z,37.70
2018-07-31T14:00:27.074Z,36.60
2018-07-31T14:02:55.288Z,37.10
2018-07-31T14:05:23.521Z,37.80
2018-07-31T14:07:51.710Z,37.90
2018-07-31T14:10:19.967Z,38.00
2018-07-31T14:12:48.229Z,38.60
2018-07-31T14:15:16.447Z,37.90
2018-07-31T14:17:44.624Z,38.00
2018-07-31T14:20:12.897Z,38.30
2018-07-31T14:22:41.156Z,38.60
2018-07-31T14:25:09.374Z,38.00
2018-07-31T14:30:06.178Z,37.50
2018-07-31T14:32:34.396Z,38.10
2018-07-31T14:35:02.645Z,37.40
2018-07-31T14:37:31.158Z,37.70
2018-07-31T14:39:59.439Z,38.80
2018-07-31T14:42:27.666Z,38.70
2018-07-31T14:44:55.899Z,38.20
2018-07-31T14:47:24.130Z,37.50
2018-07-31T14:49:52.355Z,37.30
2018-07-31T14:52:20.631Z,37.20
2018-07-31T14:54:48.847Z,37.30
2018-07-31T14:57:17.029Z,37.30
2018-07-31T14:59:45.230Z,37.70
2018-07-31T15:02:13.517Z,37.60
2018-07-31T15:04:41.765Z,37.90
2018-07-31T15:07:09.950Z,38.00
2018-07-31T15:09:38.150Z,36.10
2018-07-31T15:12:06.357Z,35.00
2018-07-31T15:14:34.547Z,36.00
2018-07-31T15:17:02.729Z,37.10
2018-07-31T15:19:31.100Z,37.80
2018-07-31T15:21:59.284Z,37.60
2018-07-31T15:24:27.493Z,37.80
2018-07-31T15:29:23.721Z,37.20
2018-07-31T15:31:51.986Z,36.90
2018-07-31T15:34:20.324Z,37.70
2018-07-31T15:36:48.664Z,38.20
2018-07-31T15:39:16.962Z,38.20
2018-07-31T15:41:45.394Z,39.10
2018-07-31T15:44:13.690Z,38.90
2018-07-31T15:49:10.150Z,37.70
2018-07-31T15:54:06.714Z,37.90
2018-07-31T15:59:03.155Z,39.30
2018-07-31T16:03:59.485Z,39.40
2018-07-31T16:06:27.786Z,39.40
2018-07-31T16:08:56.231Z,38.50
2018-07-31T16:11:24.623Z,39.00
2018-07-31T16:13:52.964Z,38.10
2018-07-31T16:16:21.382Z,38.40
2018-07-31T16:18:49.717Z,37.50
2018-07-31T16:21:18.026Z,36.70
2018-07-31T16:23:46.262Z,36.50
2018-07-31T16:26:14.588Z,37.10
2018-07-31T16:28:42.831Z,36.00
2018-07-31T16:31:11.185Z,36.70
2018-07-31T16:33:39.595Z,37.50
2018-07-31T16:36:08.031Z,37.10
2018-07-31T16:38:36.376Z,38.20
2018-07-31T16:41:04.682Z,37.20
2018-07-31T16:43:33.034Z,37.60
2018-07-31T16:46:01.479Z,38.40
2018-07-31T16:50:57.883Z,36.70
2018-07-31T16:55:54.281Z,38.10
2018-07-31T16:58:22.666Z,37.70
2018-07-31T17:00:50.986Z,38.70
2018-07-31T17:05:47.490Z,38.50
2018-07-31T17:08:15.825Z,38.70
2018-07-31T17:10:44.198Z,39.30
2018-07-31T17:13:12.497Z,38.70
2018-07-31T17:15:40.966Z,39.30
2018-07-31T17:18:09.434Z,39.40
2018-07-31T17:20:37.734Z,40.50
2018-07-31T17:23:06.080Z,41.50
2018-07-31T17:25:34.365Z,41.10
2018-07-31T17:28:02.632Z,40.70
2018-07-31T17:30:30.868Z,40.40
2018-07-31T17:32:59.174Z,40.40
2018-07-31T17:35:27.611Z,41.40
2018-07-31T17:37:55.870Z,41.80
2018-07-31T17:40:24.206Z,42.00
2018-07-31T17:42:52.525Z,42.50
2018-07-31T17:45:20.858Z,42.60
2018-07-31T17:47:49.226Z,43.20
2018-07-31T17:50:17.550Z,43.50
2018-07-31T17:52:45.870Z,44.00
2018-07-31T17:55:14.194Z,44.50
2018-07-31T17:57:42.676Z,45.10
2018-07-31T18:00:11.019Z,45.20
2018-07-31T18:02:39.320Z,45.20
2018-07-31T18:05:07.710Z,45.30
2018-07-31T18:07:36.037Z,45.20
2018-07-31T18:10:04.419Z,45.40
2018-07-31T18:12:32.738Z,45.50
2018-07-31T18:15:00.990Z,45.90
2018-07-31T18:17:29.379Z,46.00
2018-07-31T18:19:57.825Z,45.70
2018-07-31T18:22:26.245Z,45.60
2018-07-31T18:24:54.613Z,46.00
2018-07-31T18:27:22.874Z,45.80
2018-07-31T18:29:51.208Z,45.90
2018-07-31T18:32:19.582Z,45.90
2018-07-31T18:34:47.989Z,45.80
2018-07-31T18:37:16.259Z,46.40
2018-07-31T18:39:44.600Z,46.50
2018-07-31T18:42:12.854Z,46.70
2018-07-31T18:44:41.133Z,46.70
2018-07-31T18:47:09.477Z,47.10
2018-07-31T18:49:37.698Z,47.40
2018-07-31T18:52:05.949Z,48.00
2018-07-31T18:54:34.242Z,48.00
2018-07-31T18:57:02.500Z,48.10
2018-07-31T18:59:30.799Z,48.30
2018-07-31T19:01:59.089Z,48.50
2018-07-31T19:04:27.382Z,48.50
2018-07-31T19:06:55.704Z,48.90
2018-07-31T19:09:24.087Z,49.20
2018-07-31T19:11:52.414Z,49.20
2018-07-31T19:14:20.742Z,49.70
2018-07-31T19:16:49.112Z,49.90
2018-07-31T19:19:17.382Z,50.20
2018-07-31T19:21:45.728Z,50.50
2018-07-31T19:24:14.042Z,50.80
2018-07-31T19:26:42.401Z,50.80
2018-07-31T19:29:10.731Z,51.40
2018-07-31T19:31:39.080Z,51.60
2018-07-31T19:34:07.407Z,51.80
2018-07-31T19:36:35.783Z,52.10
2018-07-31T19:41:34.434Z,52.80
2018-07-31T19:44:02.741Z,53.50
2018-07-31T19:46:31.110Z,53.80
2018-07-31T19:48:59.454Z,55.60
2018-07-31T19:51:27.862Z,56.50
2018-07-31T19:53:56.409Z,57.20
2018-07-31T19:56:24.718Z,56.60
2018-07-31T19:58:53.039Z,56.60
2018-07-31T20:01:21.343Z,55.80
2018-07-31T20:03:49.636Z,55.60
2018-07-31T20:08:45.997Z,56.30
2018-07-31T20:11:14.268Z,56.70
2018-07-31T20:13:42.549Z,57.10
2018-07-31T20:16:10.848Z,57.60
2018-07-31T20:18:39.157Z,58.50
2018-07-31T20:21:07.475Z,58.00
2018-07-31T20:23:35.745Z,58.00
2018-07-31T20:26:04.076Z,58.50
2018-07-31T20:28:32.445Z,59.20
2018-07-31T20:31:00.862Z,59.40
2018-07-31T20:33:29.472Z,59.30
2018-07-31T20:35:57.794Z,59.50
2018-07-31T20:38:26.178Z,59.30
2018-07-31T20:43:22.548Z,60.40
2018-07-31T20:48:19.032Z,59.60
2018-07-31T20:50:47.319Z,60.00
2018-07-31T20:53:15.655Z,61.70
2018-07-31T20:55:43.932Z,61.80
2018-07-31T20:58:12.303Z,62.50
2018-07-31T21:00:40.655Z,63.20
2018-07-31T21:03:08.998Z,63.50
2018-07-31T21:05:37.278Z,63.70
2018-07-31T21:08:05.654Z,64.20
2018-07-31T21:10:33.959Z,66.10
2018-07-31T21:13:02.576Z,65.40
2018-07-31T21:15:30.853Z,65.60
2018-07-31T21:17:59.190Z,67.10
2018-07-31T21:20:27.478Z,66.90
2018-07-31T21:22:55.813Z,66.40
2018-07-31T21:25:24.166Z,65.70
2018-07-31T21:27:52.550Z,63.60
2018-07-31T21:30:21.025Z,64.60
2018-07-31T21:32:49.425Z,64.10
2018-07-31T21:35:17.750Z,65.00
2018-07-31T21:37:46.081Z,66.30
2018-07-31T21:40:14.462Z,68.80
2018-07-31T21:42:42.872Z,70.60
2018-07-31T21:45:11.316Z,72.30
2018-07-31T21:47:39.680Z,71.30
2018-07-31T21:50:08.009Z,72.40
2018-07-31T21:52:36.324Z,73.10
2018-07-31T21:55:04.786Z,73.00
2018-07-31T21:57:33.151Z,72.90
2018-07-31T22:00:01.490Z,73.20
2018-07-31T22:02:29.814Z,73.30
2018-07-31T22:04:58.193Z,75.10
2018-07-31T22:07:26.570Z,76.90
2018-07-31T22:09:54.855Z,78.70
2018-07-31T22:12:23.161Z,78.90
2018-07-31T22:14:51.564Z,78.90
2018-07-31T22:17:20.046Z,79.10
2018-07-31T22:19:48.500Z,81.00
2018-07-31T22:22:16.825Z,82.70
2018-07-31T22:24:45.219Z,82.50
2018-07-31T22:27:13.571Z,82.60
2018-07-31T22:29:41.940Z,82.80
2018-07-31T22:32:10.328Z,83.50
2018-07-31T22:34:38.730Z,83.20
2018-07-31T22:37:07.106Z,85.80
2018-07-31T22:39:35.486Z,88.60
2018-07-31T22:42:03.909Z,89.50
2018-07-31T22:44:32.281Z,92.60
2018-07-31T22:47:00.546Z,94.80
2018-07-31T22:49:28.853Z,95.20
2018-07-31T22:51:57.128Z,94.60
2018-07-31T22:54:25.489Z,95.00
2018-07-31T22:59:21.857Z,98.50
2018-07-31T23:01:50.250Z,99.50
2018-07-31T23:04:18.608Z,99.90
2018-07-31T23:06:46.937Z,99.90
2018-07-31T23:09:15.253Z,99.90
2018-07-31T23:14:11.744Z,99.90
2018-07-31T23:16:40.018Z,99.90
2018-07-31T23:19:08.437Z,99.90
2018-07-31T23:21:36.797Z,99.90
2018-07-31T23:24:05.126Z,99.90
2018-07-31T23:26:33.512Z,99.90
2018-07-31T23:29:01.821Z,99.90
2018-07-31T23:31:30.099Z,99.90
2018-07-31T23:33:58.587Z,99.90
2018-07-31T23:36:26.919Z,99.90
2018-07-31T23:38:55.242Z,99.90
2018-07-31T23:41:24.438Z,99.90
2018-07-31T23:43:52.753Z,99.90
2018-07-31T23:48:49.138Z,99.90
2018-07-31T23:51:17.482Z,99.90
2018-07-31T23:53:45.783Z,99.90
2018-07-31T23:56:14.196Z,99.90
2018-07-31T23:58:42.614Z,99.90
